Date,TemperatureHighF,TemperatureAvgF,TemperatureLowF,DewpointHighF,DewpointAvgF,DewpointLowF,HumidityHigh,HumidityAvg,HumidityLow,PressureMaxIn,PressureMinIn,WindSpeedMaxMPH,WindSpeedAvgMPH,GustSpeedMaxMPH,PrecipitationSumIn
2013-4-1,31.0,25.0,20.0,20.0,13.0,10.0,80,61,45,0.00,40.00,15,12,0,0.00
2013-4-2,35.0,26.3,20.0,15.0,12.0,10.0,72,55,36,0.00,40.00,12,9,0,0.00
2013-4-3,36.0,27.0,18.0,22.0,14.2,10.0,83,59,36,0.00,40.00,8,6,0,0.00
2013-4-4,46.0,36.6,29.0,32.0,24.3,19.0,73,61,47,0.00,40.00,13,8,0,0.00
2013-4-5,36.0,31.2,28.0,24.0,21.0,16.0,83,66,43,0.00,40.00,11,5,0,0.00
2013-4-6,39.0,34.2,29.0,37.0,29.1,22.0,97,81,67,0.00,40.00,12,7,0,0.19
2013-4-7,44.0,36.6,32.0,41.0,32.3,29.0,100,85,55,0.00,40.00,14,8,0,0.15
2013-4-8,35.0,34.0,32.0,35.0,32.7,31.0,100,95,88,0.00,40.00,8,6,0,0.10
2013-4-9,36.0,33.6,30.0,36.0,32.5,25.0,101,96,83,0.00,40.00,13,6,0,0.18
2013-4-10,38.0,33.1,29.0,29.0,27.0,20.0,97,78,56,0.00,40.00,10,7,0,0.24
2013-4-11,34.0,31.5,28.0,29.0,25.5,23.0,100,78,68,0.00,40.00,15,11,0,0.00
2013-4-12,33.0,29.5,25.0,32.0,28.7,25.0,100,97,93,0.00,40.00,14,8,0,0.23
2013-4-13,35.0,29.8,23.0,31.0,27.8,23.0,101,92,71,0.00,40.00,11,6,0,0.06
2013-4-14,37.0,29.2,16.0,31.0,25.0,15.0,100,85,63,0.00,40.00,9,5,0,0.06
2013-4-15,53.0,42.9,36.0,43.0,35.8,27.0,97,77,44,0.00,40.00,14,8,0,0.15
2013-4-16,48.0,40.1,33.0,31.0,28.0,26.0,78,63,43,0.00,40.00,13,8,0,0.00
2013-4-17,39.0,34.5,28.0,35.0,30.4,26.0,99,85,75,0.00,40.00,8,4,0,0.00
2013-4-18,40.0,36.9,35.0,40.0,36.7,34.0,100,99,90,0.00,40.00,10,6,0,0.25
2013-4-19,45.0,35.0,25.0,45.0,28.4,15.0,99,77,56,0.00,40.00,21,14,0,0.00
2013-4-20,36.0,28.2,22.0,23.0,15.5,10.0,78,60,34,0.00,40.00,17,9,0,0.00
2013-4-21,39.0,34.1,28.0,33.0,25.2,22.0,87,70,51,0.00,40.00,11,7,0,0.00
2013-4-22,49.0,39.8,36.0,38.0,34.8,30.0,94,82,63,0.00,40.00,8,6,0,0.10
2013-4-23,43.0,37.7,33.0,41.0,34.1,29.0,97,87,75,0.00,40.00,10,5,0,0.07
2013-4-24,46.0,37.0,30.0,30.0,25.6,18.0,88,66,33,0.00,40.00,9,6,0,0.00
2013-4-25,49.0,42.0,34.0,34.0,28.3,23.0,93,61,35,0.00,40.00,14,8,0,0.00
2013-4-26,50.0,41.3,31.0,41.0,32.9,24.0,95,73,54,0.00,40.00,13,6,0,0.01
2013-4-27,62.0,52.7,40.0,48.0,42.8,33.0,95,69,50,0.00,40.00,11,7,0,0.00
2013-4-28,65.0,50.8,38.0,39.0,36.5,34.0,88,61,33,0.00,40.00,6,3,0,0.00
2013-4-29,54.0,46.6,42.0,52.0,44.4,37.0,98,92,77,0.00,40.00,6,3,0,0.05
2013-4-30,59.0,55.8,49.0,51.0,49.2,46.0,92,78,72,0.00,40.00,16,10,0,0.00